sensor_id;sensor_type;location;lat;lon;timestamp;pressure;altitude;pressure_sealevel;temperature;humidity
15880;BME280;61999;51.514;14.614;2023-03-03T00:00:29;100551.84;;;-1.43;47.53
15880;BME280;61999;51.514;14.614;2023-03-03T00:03:03;100551.19;;;-1.12;45.30
15880;BME280;61999;51.514;14.614;2023-03-03T00:05:33;100547.06;;;-0.83;43.28
15880;BME280;61999;51.514;14.614;2023-03-03T00:08:03;100542.66;;;-1.15;46.23
15880;BME280;61999;51.514;14.614;2023-03-03T00:10:32;100539.91;;;-1.09;45.41
15880;BME280;61999;51.514;14.614;2023-03-03T00:13:00;100540.25;;;-1.25;46.73
15880;BME280;61999;51.514;14.614;2023-03-03T00:15:30;100543.63;;;-1.63;48.92
15880;BME280;61999;51.514;14.614;2023-03-03T00:17:58;100540.53;;;-1.37;46.91
15880;BME280;61999;51.514;14.614;2023-03-03T00:20:37;100535.69;;;-1.52;47.77
15880;BME280;61999;51.514;14.614;2023-03-03T00:23:21;100543.75;;;-2.13;50.51
15880;BME280;61999;51.514;14.614;2023-03-03T00:25:53;100545.06;;;-1.90;49.26
15880;BME280;61999;51.514;14.614;2023-03-03T00:28:28;100551.19;;;-1.52;47.80
15880;BME280;61999;51.514;14.614;2023-03-03T00:30:59;100549.81;;;-1.28;45.47
15880;BME280;61999;51.514;14.614;2023-03-03T00:33:31;100544.19;;;-1.08;44.02
15880;BME280;61999;51.514;14.614;2023-03-03T00:36:23;100546.56;;;-0.99;43.78
15880;BME280;61999;51.514;14.614;2023-03-03T00:39:11;100545.50;;;-0.90;43.11
15880;BME280;61999;51.514;14.614;2023-03-03T00:41:44;100549.13;;;-1.36;46.95
15880;BME280;61999;51.514;14.614;2023-03-03T00:44:39;100548.66;;;-1.15;44.45
15880;BME280;61999;51.514;14.614;2023-03-03T00:47:24;100542.22;;;-0.97;43.43
15880;BME280;61999;51.514;14.614;2023-03-03T00:50:17;100541.59;;;-1.08;45.26
15880;BME280;61999;51.514;14.614;2023-03-03T00:53:05;100549.28;;;-1.05;44.88
15880;BME280;61999;51.514;14.614;2023-03-03T00:55:35;100556.31;;;-1.10;44.25
15880;BME280;61999;51.514;14.614;2023-03-03T00:58:03;100551.13;;;-1.10;45.27
15880;BME280;61999;51.514;14.614;2023-03-03T01:00:32;100555.50;;;-1.12;44.75
15880;BME280;61999;51.514;14.614;2023-03-03T01:03:04;100549.97;;;-0.97;43.60
15880;BME280;61999;51.514;14.614;2023-03-03T01:05:33;100542.28;;;-1.00;43.51
15880;BME280;61999;51.514;14.614;2023-03-03T01:08:02;100539.41;;;-0.88;42.77
15880;BME280;61999;51.514;14.614;2023-03-03T01:10:35;100528.88;;;-0.82;42.34
15880;BME280;61999;51.514;14.614;2023-03-03T01:13:05;100512.34;;;-0.76;41.84
15880;BME280;61999;51.514;14.614;2023-03-03T01:15:34;100516.47;;;-0.67;41.64
15880;BME280;61999;51.514;14.614;2023-03-03T01:18:02;100535.72;;;-0.78;43.36
15880;BME280;61999;51.514;14.614;2023-03-03T01:20:30;100541.13;;;-0.88;44.12
15880;BME280;61999;51.514;14.614;2023-03-03T01:22:58;100535.97;;;-1.26;46.31
15880;BME280;61999;51.514;14.614;2023-03-03T01:25:26;100534.22;;;-1.25;45.40
15880;BME280;61999;51.514;14.614;2023-03-03T01:27:56;100523.72;;;-1.19;45.76
15880;BME280;61999;51.514;14.614;2023-03-03T01:30:25;100513.38;;;-1.17;44.93
15880;BME280;61999;51.514;14.614;2023-03-03T01:32:54;100512.63;;;-1.23;45.27
15880;BME280;61999;51.514;14.614;2023-03-03T01:35:22;100515.22;;;-1.61;47.38
15880;BME280;61999;51.514;14.614;2023-03-03T01:37:50;100507.59;;;-2.13;48.86
15880;BME280;61999;51.514;14.614;2023-03-03T01:40:22;100507.19;;;-1.49;45.63
15880;BME280;61999;51.514;14.614;2023-03-03T01:42:50;100504.84;;;-1.23;44.12
15880;BME280;61999;51.514;14.614;2023-03-03T01:45:23;100502.13;;;-1.16;43.52
15880;BME280;61999;51.514;14.614;2023-03-03T01:47:59;100494.03;;;-1.40;46.34
15880;BME280;61999;51.514;14.614;2023-03-03T01:50:38;100501.75;;;-1.79;47.33
15880;BME280;61999;51.514;14.614;2023-03-03T01:53:16;100508.16;;;-1.55;46.58
15880;BME280;61999;51.514;14.614;2023-03-03T01:55:46;100507.50;;;-1.65;47.17
15880;BME280;61999;51.514;14.614;2023-03-03T01:58:20;100513.69;;;-2.65;50.19
15880;BME280;61999;51.514;14.614;2023-03-03T02:00:57;100514.91;;;-2.36;50.08
15880;BME280;61999;51.514;14.614;2023-03-03T02:03:26;100521.66;;;-2.29;50.10
15880;BME280;61999;51.514;14.614;2023-03-03T02:05:59;100513.34;;;-2.00;47.91
15880;BME280;61999;51.514;14.614;2023-03-03T02:08:37;100517.88;;;-1.68;45.94
15880;BME280;61999;51.514;14.614;2023-03-03T02:11:07;100520.59;;;-1.74;46.70
15880;BME280;61999;51.514;14.614;2023-03-03T02:13:37;100527.56;;;-2.21;49.04
15880;BME280;61999;51.514;14.614;2023-03-03T02:16:07;100533.00;;;-1.91;47.38
15880;BME280;61999;51.514;14.614;2023-03-03T02:18:35;100530.78;;;-2.11;48.52
15880;BME280;61999;51.514;14.614;2023-03-03T02:21:08;100537.94;;;-2.24;49.53
15880;BME280;61999;51.514;14.614;2023-03-03T02:23:44;100540.84;;;-2.42;50.21
15880;BME280;61999;51.514;14.614;2023-03-03T02:26:20;100538.16;;;-2.87;52.29
15880;BME280;61999;51.514;14.614;2023-03-03T02:28:49;100545.63;;;-2.70;51.76
15880;BME280;61999;51.514;14.614;2023-03-03T02:31:21;100555.34;;;-2.86;52.25
15880;BME280;61999;51.514;14.614;2023-03-03T02:33:51;100562.00;;;-2.73;51.77
15880;BME280;61999;51.514;14.614;2023-03-03T02:36:23;100543.81;;;-3.21;53.31
15880;BME280;61999;51.514;14.614;2023-03-03T02:39:02;100536.78;;;-3.10;52.64
15880;BME280;61999;51.514;14.614;2023-03-03T02:41:38;100540.16;;;-3.05;52.26
15880;BME280;61999;51.514;14.614;2023-03-03T02:44:09;100537.91;;;-2.72;50.94
15880;BME280;61999;51.514;14.614;2023-03-03T02:46:40;100524.72;;;-3.71;53.13
15880;BME280;61999;51.514;14.614;2023-03-03T02:49:11;100515.84;;;-3.47;54.10
15880;BME280;61999;51.514;14.614;2023-03-03T02:51:40;100505.38;;;-2.81;50.55
15880;BME280;61999;51.514;14.614;2023-03-03T02:54:10;100496.03;;;-2.38;48.24
15880;BME280;61999;51.514;14.614;2023-03-03T02:56:40;100504.19;;;-2.16;47.42
15880;BME280;61999;51.514;14.614;2023-03-03T02:59:08;100514.69;;;-2.24;49.24
15880;BME280;61999;51.514;14.614;2023-03-03T03:01:36;100509.44;;;-2.19;48.28
15880;BME280;61999;51.514;14.614;2023-03-03T03:04:07;100510.00;;;-3.03;51.16
15880;BME280;61999;51.514;14.614;2023-03-03T03:06:36;100499.41;;;-4.11;56.07
15880;BME280;61999;51.514;14.614;2023-03-03T03:09:06;100501.69;;;-4.68;58.45
15880;BME280;61999;51.514;14.614;2023-03-03T03:11:35;100512.75;;;-3.77;55.96
15880;BME280;61999;51.514;14.614;2023-03-03T03:14:09;100518.78;;;-3.76;55.45
15880;BME280;61999;51.514;14.614;2023-03-03T03:16:38;100524.38;;;-3.43;54.70
15880;BME280;61999;51.514;14.614;2023-03-03T03:19:07;100526.31;;;-3.01;52.60
15880;BME280;61999;51.514;14.614;2023-03-03T03:21:35;100524.47;;;-2.92;52.45
15880;BME280;61999;51.514;14.614;2023-03-03T03:24:04;100517.94;;;-3.15;53.01
15880;BME280;61999;51.514;14.614;2023-03-03T03:26:32;100532.19;;;-3.50;54.41
15880;BME280;61999;51.514;14.614;2023-03-03T03:29:00;100533.88;;;-3.49;54.52
15880;BME280;61999;51.514;14.614;2023-03-03T03:31:29;100527.00;;;-3.47;54.45
15880;BME280;61999;51.514;14.614;2023-03-03T03:33:57;100530.13;;;-3.26;53.01
15880;BME280;61999;51.514;14.614;2023-03-03T03:36:26;100540.44;;;-3.26;52.91
15880;BME280;61999;51.514;14.614;2023-03-03T03:38:54;100547.78;;;-3.59;53.51
15880;BME280;61999;51.514;14.614;2023-03-03T03:41:22;100535.06;;;-3.11;51.51
15880;BME280;61999;51.514;14.614;2023-03-03T03:43:50;100535.97;;;-3.13;51.56
15880;BME280;61999;51.514;14.614;2023-03-03T03:46:18;100546.72;;;-2.85;50.31
15880;BME280;61999;51.514;14.614;2023-03-03T03:48:48;100550.72;;;-3.23;51.86
15880;BME280;61999;51.514;14.614;2023-03-03T03:51:16;100544.28;;;-2.94;50.31
15880;BME280;61999;51.514;14.614;2023-03-03T03:53:43;100546.06;;;-2.98;50.81
15880;BME280;61999;51.514;14.614;2023-03-03T03:56:12;100556.47;;;-3.04;51.02
15880;BME280;61999;51.514;14.614;2023-03-03T03:58:40;100564.97;;;-2.97;51.08
15880;BME280;61999;51.514;14.614;2023-03-03T04:01:08;100559.91;;;-3.04;50.76
15880;BME280;61999;51.514;14.614;2023-03-03T04:03:36;100557.75;;;-2.75;49.21
15880;BME280;61999;51.514;14.614;2023-03-03T04:06:05;100553.63;;;-2.87;49.69
15880;BME280;61999;51.514;14.614;2023-03-03T04:08:33;100564.25;;;-3.09;50.62
15880;BME280;61999;51.514;14.614;2023-03-03T04:11:01;100564.56;;;-3.30;50.93
15880;BME280;61999;51.514;14.614;2023-03-03T04:13:29;100560.69;;;-2.98;50.20
15880;BME280;61999;51.514;14.614;2023-03-03T04:16:00;100565.34;;;-3.24;51.41
15880;BME280;61999;51.514;14.614;2023-03-03T04:18:29;100569.56;;;-3.18;51.44
15880;BME280;61999;51.514;14.614;2023-03-03T04:20:57;100567.78;;;-3.82;53.29
15880;BME280;61999;51.514;14.614;2023-03-03T04:23:26;100575.53;;;-3.85;53.39
15880;BME280;61999;51.514;14.614;2023-03-03T04:25:54;100576.44;;;-3.88;54.23
15880;BME280;61999;51.514;14.614;2023-03-03T04:28:22;100572.44;;;-3.42;52.54
15880;BME280;61999;51.514;14.614;2023-03-03T04:30:50;100582.66;;;-3.35;52.13
15880;BME280;61999;51.514;14.614;2023-03-03T04:33:18;100576.94;;;-3.57;53.15
15880;BME280;61999;51.514;14.614;2023-03-03T04:35:46;100571.84;;;-3.63;52.88
15880;BME280;61999;51.514;14.614;2023-03-03T04:38:14;100582.94;;;-3.56;52.90
15880;BME280;61999;51.514;14.614;2023-03-03T04:40:44;100579.97;;;-3.97;53.77
15880;BME280;61999;51.514;14.614;2023-03-03T04:43:12;100573.63;;;-3.68;53.18
15880;BME280;61999;51.514;14.614;2023-03-03T04:45:40;100560.50;;;-4.28;53.51
15880;BME280;61999;51.514;14.614;2023-03-03T04:48:08;100576.81;;;-5.57;57.78
15880;BME280;61999;51.514;14.614;2023-03-03T04:50:36;100583.09;;;-4.61;56.65
15880;BME280;61999;51.514;14.614;2023-03-03T04:53:04;100570.63;;;-4.10;54.76
15880;BME280;61999;51.514;14.614;2023-03-03T04:55:35;100583.13;;;-3.70;52.81
15880;BME280;61999;51.514;14.614;2023-03-03T04:58:04;100576.53;;;-3.97;54.10
15880;BME280;61999;51.514;14.614;2023-03-03T05:00:32;100567.16;;;-4.03;53.53
15880;BME280;61999;51.514;14.614;2023-03-03T05:03:00;100563.50;;;-3.83;53.53
15880;BME280;61999;51.514;14.614;2023-03-03T05:05:28;100554.41;;;-3.42;51.71
15880;BME280;61999;51.514;14.614;2023-03-03T05:07:56;100539.75;;;-3.36;51.19
15880;BME280;61999;51.514;14.614;2023-03-03T05:10:24;100533.81;;;-3.44;51.81
15880;BME280;61999;51.514;14.614;2023-03-03T05:12:52;100540.25;;;-3.14;50.24
15880;BME280;61999;51.514;14.614;2023-03-03T05:15:22;100541.03;;;-3.07;49.82
15880;BME280;61999;51.514;14.614;2023-03-03T05:17:50;100550.66;;;-3.20;50.82
15880;BME280;61999;51.514;14.614;2023-03-03T05:20:19;100554.13;;;-3.21;50.99
15880;BME280;61999;51.514;14.614;2023-03-03T05:22:47;100555.78;;;-3.17;50.97
15880;BME280;61999;51.514;14.614;2023-03-03T05:25:15;100555.00;;;-3.92;53.93
15880;BME280;61999;51.514;14.614;2023-03-03T05:27:45;100557.06;;;-4.24;55.29
15880;BME280;61999;51.514;14.614;2023-03-03T05:30:13;100547.91;;;-3.70;52.84
15880;BME280;61999;51.514;14.614;2023-03-03T05:32:42;100556.09;;;-3.38;51.22
15880;BME280;61999;51.514;14.614;2023-03-03T05:35:10;100552.66;;;-3.40;51.40
15880;BME280;61999;51.514;14.614;2023-03-03T05:37:38;100549.53;;;-3.64;52.52
15880;BME280;61999;51.514;14.614;2023-03-03T05:40:12;100526.75;;;-3.31;50.84
15880;BME280;61999;51.514;14.614;2023-03-03T05:42:40;100540.94;;;-3.63;52.39
15880;BME280;61999;51.514;14.614;2023-03-03T05:45:12;100541.44;;;-3.36;51.76
15880;BME280;61999;51.514;14.614;2023-03-03T05:47:41;100548.75;;;-3.68;52.65
15880;BME280;61999;51.514;14.614;2023-03-03T05:50:10;100551.50;;;-4.77;55.35
15880;BME280;61999;51.514;14.614;2023-03-03T05:52:38;100543.72;;;-6.58;60.46
15880;BME280;61999;51.514;14.614;2023-03-03T05:55:07;100546.97;;;-7.64;65.61
15880;BME280;61999;51.514;14.614;2023-03-03T05:57:35;100557.38;;;-7.01;66.10
15880;BME280;61999;51.514;14.614;2023-03-03T06:00:04;100571.75;;;-5.71;62.11
15880;BME280;61999;51.514;14.614;2023-03-03T06:02:33;100577.34;;;-4.95;58.43
15880;BME280;61999;51.514;14.614;2023-03-03T06:05:03;100589.88;;;-4.51;56.79
15880;BME280;61999;51.514;14.614;2023-03-03T06:07:31;100587.81;;;-4.12;54.61
15880;BME280;61999;51.514;14.614;2023-03-03T06:10:00;100596.16;;;-3.85;53.29
15880;BME280;61999;51.514;14.614;2023-03-03T06:12:28;100594.19;;;-3.62;52.23
15880;BME280;61999;51.514;14.614;2023-03-03T06:14:56;100594.91;;;-3.52;52.06
15880;BME280;61999;51.514;14.614;2023-03-03T06:17:24;100592.25;;;-3.44;51.80
15880;BME280;61999;51.514;14.614;2023-03-03T06:19:52;100590.47;;;-4.20;54.36
15880;BME280;61999;51.514;14.614;2023-03-03T06:22:21;100608.34;;;-5.18;57.32
15880;BME280;61999;51.514;14.614;2023-03-03T06:24:49;100617.91;;;-5.57;59.93
15880;BME280;61999;51.514;14.614;2023-03-03T06:27:18;100614.25;;;-5.04;57.98
15880;BME280;61999;51.514;14.614;2023-03-03T06:29:46;100605.81;;;-5.34;59.80
15880;BME280;61999;51.514;14.614;2023-03-03T06:32:14;100606.75;;;-5.47;60.00
15880;BME280;61999;51.514;14.614;2023-03-03T06:34:42;100614.53;;;-5.72;59.39
15880;BME280;61999;51.514;14.614;2023-03-03T06:37:10;100624.03;;;-6.72;63.84
15880;BME280;61999;51.514;14.614;2023-03-03T06:39:39;100614.66;;;-6.56;63.82
15880;BME280;61999;51.514;14.614;2023-03-03T06:42:08;100616.31;;;-6.96;64.12
15880;BME280;61999;51.514;14.614;2023-03-03T06:44:36;100612.94;;;-6.46;64.21
15880;BME280;61999;51.514;14.614;2023-03-03T06:47:04;100614.53;;;-7.14;65.93
15880;BME280;61999;51.514;14.614;2023-03-03T06:49:32;100612.97;;;-6.31;64.74
15880;BME280;61999;51.514;14.614;2023-03-03T06:52:10;100613.78;;;-6.07;64.28
15880;BME280;61999;51.514;14.614;2023-03-03T06:54:40;100614.53;;;-5.68;61.94
15880;BME280;61999;51.514;14.614;2023-03-03T06:57:17;100620.44;;;-5.40;61.22
15880;BME280;61999;51.514;14.614;2023-03-03T06:59:51;100623.91;;;-5.47;60.84
15880;BME280;61999;51.514;14.614;2023-03-03T07:02:20;100626.94;;;-4.80;59.52
15880;BME280;61999;51.514;14.614;2023-03-03T07:04:49;100634.53;;;-4.58;57.47
15880;BME280;61999;51.514;14.614;2023-03-03T07:07:19;100645.72;;;-4.62;59.20
15880;BME280;61999;51.514;14.614;2023-03-03T07:09:52;100635.44;;;-4.62;57.88
15880;BME280;61999;51.514;14.614;2023-03-03T07:12:23;100636.44;;;-4.89;58.81
15880;BME280;61999;51.514;14.614;2023-03-03T07:15:04;100642.34;;;-4.70;58.51
15880;BME280;61999;51.514;14.614;2023-03-03T07:17:44;100641.97;;;-6.63;63.13
15880;BME280;61999;51.514;14.614;2023-03-03T07:20:20;100636.88;;;-6.49;65.08
15880;BME280;61999;51.514;14.614;2023-03-03T07:22:49;100649.56;;;-7.13;67.16
15880;BME280;61999;51.514;14.614;2023-03-03T07:25:29;100643.59;;;-7.17;67.94
15880;BME280;61999;51.514;14.614;2023-03-03T07:28:10;100645.19;;;-7.48;67.58
15880;BME280;61999;51.514;14.614;2023-03-03T07:30:41;100653.72;;;-8.65;72.03
15880;BME280;61999;51.514;14.614;2023-03-03T07:33:23;100659.38;;;-7.99;72.97
15880;BME280;61999;51.514;14.614;2023-03-03T07:35:55;100653.75;;;-7.32;71.76
15880;BME280;61999;51.514;14.614;2023-03-03T07:38:30;100654.78;;;-6.87;68.96
15880;BME280;61999;51.514;14.614;2023-03-03T07:41:09;100669.22;;;-7.11;68.64
15880;BME280;61999;51.514;14.614;2023-03-03T07:43:42;100672.59;;;-7.18;67.49
15880;BME280;61999;51.514;14.614;2023-03-03T07:46:26;100663.22;;;-7.19;67.85
15880;BME280;61999;51.514;14.614;2023-03-03T07:48:57;100665.94;;;-6.54;66.46
15880;BME280;61999;51.514;14.614;2023-03-03T07:51:29;100674.47;;;-5.97;64.42
15880;BME280;61999;51.514;14.614;2023-03-03T07:54:22;100676.09;;;-5.38;62.39
15880;BME280;61999;51.514;14.614;2023-03-03T07:56:55;100669.34;;;-5.76;62.80
15880;BME280;61999;51.514;14.614;2023-03-03T07:59:25;100677.66;;;-7.32;67.79
15880;BME280;61999;51.514;14.614;2023-03-03T08:01:56;100670.22;;;-6.59;66.86
15880;BME280;61999;51.514;14.614;2023-03-03T08:04:33;100677.84;;;-6.81;67.98
15880;BME280;61999;51.514;14.614;2023-03-03T08:07:13;100665.91;;;-6.79;68.52
15880;BME280;61999;51.514;14.614;2023-03-03T08:09:47;100675.31;;;-6.72;68.91
15880;BME280;61999;51.514;14.614;2023-03-03T08:12:42;100667.59;;;-6.72;68.05
15880;BME280;61999;51.514;14.614;2023-03-03T08:15:24;100654.78;;;-5.80;65.11
15880;BME280;61999;51.514;14.614;2023-03-03T08:17:55;100649.69;;;-6.35;67.13
15880;BME280;61999;51.514;14.614;2023-03-03T08:20:42;100648.69;;;-5.39;64.39
15880;BME280;61999;51.514;14.614;2023-03-03T08:23:13;100647.00;;;-5.49;63.05
15880;BME280;61999;51.514;14.614;2023-03-03T08:25:42;100649.53;;;-5.35;63.41
15880;BME280;61999;51.514;14.614;2023-03-03T08:28:11;100657.75;;;-4.69;61.43
15880;BME280;61999;51.514;14.614;2023-03-03T08:30:40;100667.22;;;-4.75;60.10
15880;BME280;61999;51.514;14.614;2023-03-03T08:33:09;100669.31;;;-5.74;63.45
15880;BME280;61999;51.514;14.614;2023-03-03T08:35:37;100658.59;;;-4.68;61.03
15880;BME280;61999;51.514;14.614;2023-03-03T08:38:06;100665.47;;;-4.67;59.76
15880;BME280;61999;51.514;14.614;2023-03-03T08:40:35;100665.38;;;-4.55;60.45
15880;BME280;61999;51.514;14.614;2023-03-03T08:43:04;100671.63;;;-5.00;62.08
15880;BME280;61999;51.514;14.614;2023-03-03T08:45:34;100680.13;;;-4.86;60.32
15880;BME280;61999;51.514;14.614;2023-03-03T08:48:03;100679.59;;;-5.69;63.01
15880;BME280;61999;51.514;14.614;2023-03-03T08:50:32;100683.03;;;-6.29;64.02
15880;BME280;61999;51.514;14.614;2023-03-03T08:52:59;100691.56;;;-5.68;64.91
15880;BME280;61999;51.514;14.614;2023-03-03T08:55:29;100694.00;;;-5.16;61.79
15880;BME280;61999;51.514;14.614;2023-03-03T08:57:57;100691.03;;;-4.46;60.81
15880;BME280;61999;51.514;14.614;2023-03-03T09:00:26;100688.66;;;-4.80;60.55
15880;BME280;61999;51.514;14.614;2023-03-03T09:02:55;100680.47;;;-4.09;59.52
15880;BME280;61999;51.514;14.614;2023-03-03T09:05:25;100688.75;;;-4.93;60.65
15880;BME280;61999;51.514;14.614;2023-03-03T09:07:54;100677.94;;;-6.15;64.55
15880;BME280;61999;51.514;14.614;2023-03-03T09:10:24;100682.19;;;-5.93;66.17
15880;BME280;61999;51.514;14.614;2023-03-03T09:12:59;100679.63;;;-6.00;65.41
15880;BME280;61999;51.514;14.614;2023-03-03T09:15:34;100676.09;;;-5.38;65.30
15880;BME280;61999;51.514;14.614;2023-03-03T09:18:14;100670.66;;;-4.78;63.23
15880;BME280;61999;51.514;14.614;2023-03-03T09:20:45;100674.88;;;-4.63;61.36
15880;BME280;61999;51.514;14.614;2023-03-03T09:23:36;100682.00;;;-5.20;63.68
15880;BME280;61999;51.514;14.614;2023-03-03T09:26:25;100681.28;;;-5.68;65.94
15880;BME280;61999;51.514;14.614;2023-03-03T09:29:18;100688.06;;;-5.40;65.44
15880;BME280;61999;51.514;14.614;2023-03-03T09:31:51;100693.31;;;-6.35;66.79
15880;BME280;61999;51.514;14.614;2023-03-03T09:34:23;100689.66;;;-5.02;64.77
15880;BME280;61999;51.514;14.614;2023-03-03T09:36:54;100686.47;;;-5.87;66.45
15880;BME280;61999;51.514;14.614;2023-03-03T09:39:29;100689.88;;;-5.94;66.73
15880;BME280;61999;51.514;14.614;2023-03-03T09:42:32;100686.47;;;-5.93;68.13
15880;BME280;61999;51.514;14.614;2023-03-03T09:45:39;100695.88;;;-5.89;66.99
15880;BME280;61999;51.514;14.614;2023-03-03T09:48:38;100686.47;;;-6.08;67.92
15880;BME280;61999;51.514;14.614;2023-03-03T09:51:41;100686.47;;;-5.84;67.74
15880;BME280;61999;51.514;14.614;2023-03-03T09:54:27;100686.47;;;-6.30;70.16
15880;BME280;61999;51.514;14.614;2023-03-03T09:57:08;100686.25;;;-5.04;66.35
15880;BME280;61999;51.514;14.614;2023-03-03T10:00:06;100687.25;;;-5.42;67.18
15880;BME280;61999;51.514;14.614;2023-03-03T10:02:52;100696.59;;;-5.26;66.74
15880;BME280;61999;51.514;14.614;2023-03-03T10:05:40;100695.59;;;-4.94;66.76
15880;BME280;61999;51.514;14.614;2023-03-03T10:08:30;100696.19;;;-4.46;64.17
15880;BME280;61999;51.514;14.614;2023-03-03T10:11:13;100695.03;;;-4.02;62.45
15880;BME280;61999;51.514;14.614;2023-03-03T10:14:02;100708.69;;;-5.77;66.32
15880;BME280;61999;51.514;14.614;2023-03-03T10:17:02;100705.19;;;-5.36;66.36
15880;BME280;61999;51.514;14.614;2023-03-03T10:19:39;100705.28;;;-6.12;68.01
15880;BME280;61999;51.514;14.614;2023-03-03T10:22:19;100709.56;;;-5.91;70.17
15880;BME280;61999;51.514;14.614;2023-03-03T10:25:06;100701.72;;;-5.22;68.17
15880;BME280;61999;51.514;14.614;2023-03-03T10:28:04;100712.94;;;-3.88;64.36
15880;BME280;61999;51.514;14.614;2023-03-03T10:30:48;100709.00;;;-4.35;63.29
15880;BME280;61999;51.514;14.614;2023-03-03T10:33:43;100705.72;;;-3.54;61.61
15880;BME280;61999;51.514;14.614;2023-03-03T10:36:36;100709.78;;;-3.30;60.26
15880;BME280;61999;51.514;14.614;2023-03-03T10:39:28;100706.53;;;-3.47;60.50
15880;BME280;61999;51.514;14.614;2023-03-03T10:42:16;100715.56;;;-3.93;60.80
15880;BME280;61999;51.514;14.614;2023-03-03T10:45:06;100712.47;;;-3.39;60.96
15880;BME280;61999;51.514;14.614;2023-03-03T10:47:55;100708.47;;;-2.93;58.93
15880;BME280;61999;51.514;14.614;2023-03-03T10:50:35;100704.72;;;-3.37;59.21
15880;BME280;61999;51.514;14.614;2023-03-03T10:53:28;100708.97;;;-3.33;59.04
15880;BME280;61999;51.514;14.614;2023-03-03T10:56:16;100711.97;;;-3.73;61.24
15880;BME280;61999;51.514;14.614;2023-03-03T10:59:09;100709.38;;;-3.73;60.30
15880;BME280;61999;51.514;14.614;2023-03-03T11:01:49;100706.41;;;-4.37;63.27
15880;BME280;61999;51.514;14.614;2023-03-03T11:04:41;100699.44;;;-3.27;60.59
15880;BME280;61999;51.514;14.614;2023-03-03T11:07:21;100694.50;;;-3.47;60.12
15880;BME280;61999;51.514;14.614;2023-03-03T11:10:08;100690.50;;;-5.00;63.05
15880;BME280;61999;51.514;14.614;2023-03-03T11:12:54;100689.69;;;-5.14;65.95
15880;BME280;61999;51.514;14.614;2023-03-03T11:15:41;100686.28;;;-5.16;65.99
15880;BME280;61999;51.514;14.614;2023-03-03T11:18:34;100675.78;;;-4.70;64.35
15880;BME280;61999;51.514;14.614;2023-03-03T11:21:18;100677.81;;;-5.43;67.51
15880;BME280;61999;51.514;14.614;2023-03-03T11:24:17;100681.19;;;-5.29;66.23
15880;BME280;61999;51.514;14.614;2023-03-03T11:27:07;100682.19;;;-5.86;69.14
15880;BME280;61999;51.514;14.614;2023-03-03T11:29:56;100674.41;;;-5.57;69.49
15880;BME280;61999;51.514;14.614;2023-03-03T11:32:40;100676.22;;;-6.39;71.28
15880;BME280;61999;51.514;14.614;2023-03-03T11:35:22;100679.63;;;-6.43;71.81
15880;BME280;61999;51.514;14.614;2023-03-03T11:38:03;100669.34;;;-6.49;72.50
15880;BME280;61999;51.514;14.614;2023-03-03T11:40:46;100669.34;;;-6.65;72.00
15880;BME280;61999;51.514;14.614;2023-03-03T11:43:21;100662.44;;;-6.93;73.05
15880;BME280;61999;51.514;14.614;2023-03-03T11:46:06;100666.72;;;-5.60;69.97
15880;BME280;61999;51.514;14.614;2023-03-03T11:48:46;100665.09;;;-6.27;70.78
15880;BME280;61999;51.514;14.614;2023-03-03T11:51:22;100653.97;;;-6.09;70.48
15880;BME280;61999;51.514;14.614;2023-03-03T11:54:00;100648.84;;;-6.19;71.45
15880;BME280;61999;51.514;14.614;2023-03-03T11:56:38;100652.88;;;-5.22;69.74
15880;BME280;61999;51.514;14.614;2023-03-03T12:02:46;100659.09;;;-6.55;71.38
15880;BME280;61999;51.514;14.614;2023-03-03T12:05:37;100653.88;;;-5.60;70.63
15880;BME280;61999;51.514;14.614;2023-03-03T12:08:24;100647.94;;;-5.84;70.36
15880;BME280;61999;51.514;14.614;2023-03-03T12:11:05;100644.44;;;-5.57;70.17
15880;BME280;61999;51.514;14.614;2023-03-03T12:13:50;100648.50;;;-4.99;67.69
15880;BME280;61999;51.514;14.614;2023-03-03T12:16:37;100647.94;;;-6.68;70.74
15880;BME280;61999;51.514;14.614;2023-03-03T12:19:30;100652.13;;;-7.09;74.40
15880;BME280;61999;51.514;14.614;2023-03-03T12:22:12;100645.44;;;-6.59;75.24
15880;BME280;61999;51.514;14.614;2023-03-03T12:25:04;100640.16;;;-5.50;73.32
15880;BME280;61999;51.514;14.614;2023-03-03T12:27:45;100638.44;;;-5.48;69.60
15880;BME280;61999;51.514;14.614;2023-03-03T12:30:29;100648.56;;;-5.14;67.79
15880;BME280;61999;51.514;14.614;2023-03-03T12:33:14;100639.38;;;-5.72;68.41
15880;BME280;61999;51.514;14.614;2023-03-03T12:35:57;100650.31;;;-5.16;67.36
15880;BME280;61999;51.514;14.614;2023-03-03T12:38:40;100656.81;;;-4.57;66.88
15880;BME280;61999;51.514;14.614;2023-03-03T12:41:19;100659.50;;;-4.74;64.77
15880;BME280;61999;51.514;14.614;2023-03-03T12:43:58;100659.44;;;-4.62;65.58
15880;BME280;61999;51.514;14.614;2023-03-03T12:46:42;100639.53;;;-4.40;64.24
15880;BME280;61999;51.514;14.614;2023-03-03T12:49:11;100634.50;;;-3.59;62.23
15880;BME280;61999;51.514;14.614;2023-03-03T12:52:00;100641.63;;;-4.92;64.29
15880;BME280;61999;51.514;14.614;2023-03-03T12:54:55;100638.59;;;-4.29;64.70
15880;BME280;61999;51.514;14.614;2023-03-03T12:57:38;100640.72;;;-4.87;63.85
15880;BME280;61999;51.514;14.614;2023-03-03T13:00:25;100639.41;;;-4.24;64.61
15880;BME280;61999;51.514;14.614;2023-03-03T13:03:03;100631.66;;;-5.64;66.72
15880;BME280;61999;51.514;14.614;2023-03-03T13:05:48;100640.28;;;-6.41;71.00
15880;BME280;61999;51.514;14.614;2023-03-03T13:08:45;100633.34;;;-7.14;74.43
15880;BME280;61999;51.514;14.614;2023-03-03T13:11:41;100625.69;;;-7.03;77.14
15880;BME280;61999;51.514;14.614;2023-03-03T13:14:24;100630.91;;;-6.42;75.15
15880;BME280;61999;51.514;14.614;2023-03-03T13:17:12;100632.47;;;-7.19;76.89
15880;BME280;61999;51.514;14.614;2023-03-03T13:19:49;100624.84;;;-7.00;77.57
15880;BME280;61999;51.514;14.614;2023-03-03T13:22:37;100618.91;;;-6.78;75.65
15880;BME280;61999;51.514;14.614;2023-03-03T13:28:26;100617.06;;;-7.31;79.36